Aérodrome :
LOGIN :

S'inscrire | Disclaimer

   EN    FR    IT 

 










Légende :    VFR   VFR Marginal   IFR   IFR Intensif   IFR Très Intensif
Visi : 
Plafond : 
>= 8 km
>= 3000ft
5 à 8 km
1000 à 3000 ft
1500m à 5 km
500 à 1000 ft
800 à 1500m
200 à 500 ft
< 800m
< 200 ft
Symboles :   Orages  Brouillard  Fortes neiges  Fortes précipitations  Vent > 20 kt
SIGMETs :   Divers  Orages  Givrage  Turbulence  Onde Orograph.  Cendres Volcan.







- Altitude de l'aérodrome : 0 ft


ETEB - Ansbach Army Heliport

DERNIER METAR :
  • 101856Z AUTO 28009KT 9999 FEW012 SCT020 BKN031 02/01 A3008 RMK AO2 SLP220 P0000 T00150005 $

METARs EXPIRÉS :
  • 101841Z AUTO 28012G19KT 9999 SCT012 BKN019 OVC028 02/01 A3008 RMK AO2 SLP220 $
  • 101811Z AUTO 27010G19KT 9999 BKN014 BKN021 BKN030 BKN038 02/01 A3007 RMK AO2 CIG 014V021 SLP217 $
  • 101756Z AUTO 27013KT 9999 FEW014 BKN021 BKN027 BKN034 OVC042 02/01 A3007 RMK AO2 RAE10UPB10E13RAB13E29DZB35E40RAB40E54DZB54E55 SLP217 P0002 60004 T00230014 10043 20019 55001 $
  • 101750Z AUTO 28013KT 9999 -RA SCT014 BKN021 BKN029 BKN038 02/01 A3007 RMK AO2 RAE10UPB10E13RAB13E29DZB35E40RAB40 SLP217 $
  • 101735Z AUTO 27009KT 9999 -DZ SCT012 BKN019 BKN042 03/02 A3007 RMK AO2 RAE10UPB10E13RAB13E29DZB35 CIG 012V019 SLP215 $
  • 101729Z AUTO 27011KT 9999 BKN012 BKN018 BKN042 02/02 A3007 RMK AO2 RAE10UPB10E13RAB13E29 BKN012 V OVC SLP217 $
  • 101656Z AUTO 27011KT 9999 -RA SCT010 BKN015 OVC022 02/02 A3007 RMK AO2 DZB1556E1557RAB1557E29DZB29E30RAB30E47DZB47E53RAB53 SLP217 P0002 T00230017 $
  • 101612Z AUTO 27013KT 9999 -RA OVC018 03/01 A3008 RMK AO2 DZB1556E1557RAB1557 SLP218 $

TAF AMD TAF ETEB
Valide du 10 à 18h jusqu'au 11 à 20h UTC


101829Z 1018/1120 28010G18KT 9999 BKN013 OVC024 QNH3008INS
TEMPO 1018/1020 9000 -RASN OVC015
BECMG 1019/1020 29012KT 9999 BKN015 620404 QNH3010INS
BECMG 1106/1107 28013KT 5000 SHSN BKN015 620208 QNH3011INS TX05/1113Z TN01/1023Z
Pas de NOTAMs connus pour ce terrain.
1 SIGMET publié pour la FIR Langen (EDGG) :
 
Turbulence forte
EDGG SIGMET 2 VALID 101704/102000 EDZF
EDGG LANGEN FIR SEV TURB FCST APRX 40NM WID LINE BTN N5103 E00555 - N4755 E00906 FL180/240 MOV E NC=



MET'MAP, la Météo Aéronautique d'un coup d'oeil ! - Copyright ORBIFLY Décembre 2007 - Disclaimer

ORBIFLY MET'MAP TEAM :

Programmation & Développement : Alexandra Zaïnal
Conception & Développement : Baudouin d'Aumeries
Co-Programmation & Développement : Marc-Olivier Méhu
Soutien technique & logistique : Manuel Goepfert

Contact : metmap@orbifly.com




SOURCES & CREDITS :

   NOAA